Time;durP1;ratioP1;P1;durP2;ratioP2;P2;SDS_P1;SDS_P2;PMS_P1;PMS_P2;Temp;Humidity;BMP_temperature;BMP_pressure;BME280_temperature;BME280_humidity;BME280_pressure;Samples;Min_cycle;Max_cycle;Signal;HPM_P1;HPM_P2
2022/04/11 19:27:06;;;;;;;;;;;;;;;9.00;42.49;100038.50;5221381;27;33681;-94
2022/04/11 19:29:36;;;;;;;;;;;;;;;9.05;42.61;100031.56;5222840;27;32423;-90
2022/04/11 19:32:05;;;;;;;;;;;;;;;8.89;43.11;100038.47;5225046;27;33743;-93
2022/04/11 19:34:33;;;;;;;;;;;;;;;8.83;43.20;100033.31;5246910;27;33880;-94
2022/04/11 19:37:02;;;;;;;;;;;;;;;8.79;43.19;100036.75;5252766;27;33420;-91
2022/04/11 19:39:30;;;;;;;;;;;;;;;8.74;42.92;100035.03;5248486;27;34198;-93
2022/04/11 20:07:04;;;;;;;;;;;;;;;8.37;43.98;100023.78;5207933;27;19969;-92
2022/04/11 20:09:39;;;;;;;;;;;;;;;8.36;44.58;100023.78;5226240;27;34133;-90
2022/04/11 20:12:07;;;;;;;;;;;;;;;8.26;44.62;100015.16;5226383;27;34200;-91
2022/04/11 20:14:36;;;;;;;;;;;;;;;8.52;43.23;100012.63;5232641;27;34358;-92
2022/04/11 20:17:08;;;;;;;;;;;;;;;8.49;43.47;100012.63;5227248;27;34302;-91
2022/04/11 20:19:36;;;;;;;;;;;;;;;8.28;44.04;100014.28;5226556;27;33889;-92
2022/04/11 20:22:06;;;;;;;;;;;;;;;8.09;45.25;100010.84;5227457;27;33040;-92
2022/04/11 20:24:35;;;;;;;;;;;;;;;8.15;45.79;100011.72;5227094;27;34143;-93
2022/04/11 20:27:03;;;;;;;;;;;;;;;7.96;45.82;100014.25;5231787;27;35054;-91
2022/04/11 20:29:32;;;;;;;;;;;;;;;7.75;46.13;100009.87;5247362;27;36527;-94
2022/04/11 20:32:00;;;;;;;;;;;;;;;7.94;45.72;100015.09;5248398;27;34300;-92
2022/04/11 20:34:29;;;;;;;;;;;;;;;7.87;45.81;100011.62;5250960;27;34874;-91
2022/04/11 20:36:58;;;;;;;;;;;;;;;7.56;46.16;100015.81;5247669;27;34407;-89
2022/04/11 20:39:27;;;;;;;;;;;;;;;7.20;46.95;100013.09;5249677;27;36689;-91
2022/04/11 20:42:00;;;;;;;;;;;;;;;7.32;46.88;100011.41;5252033;27;33931;-90
2022/04/11 20:44:29;;;;;;;;;;;;;;;7.47;46.49;100020.09;5245887;27;34204;-90
2022/04/11 20:46:58;;;;;;;;;;;;;;;7.58;45.68;100020.13;5246600;27;34855;-91
2022/04/11 20:49:26;;;;;;;;;;;;;;;7.43;45.97;100014.91;5246569;27;34255;-92
2022/04/11 20:51:55;;;;;;;;;;;;;;;7.52;45.88;100017.53;5227275;27;32807;-93
2022/04/11 20:57:22;;;;;;;;;;;;;;;7.69;44.89;100033.97;5184567;27;34632;-93
2022/04/11 20:59:51;;;;;;;;;;;;;;;7.43;45.49;100020.06;5179808;27;34873;-89
2022/04/11 21:02:20;;;;;;;;;;;;;;;7.50;45.31;100027.00;5178910;27;33017;-92
2022/04/11 21:04:51;;;;;;;;;;;;;;;7.55;44.68;100030.44;5177928;27;34999;-89
2022/04/11 21:07:21;;;;;;;;;;;;;;;7.18;45.16;100029.41;5178412;27;34651;-91
2022/04/11 21:12:58;;;;;;;;;;;;;;;7.26;45.27;100026.00;5180467;27;33477;-91
2022/04/11 21:15:27;;;;;;;;;;;;;;;7.25;45.51;100024.28;5161059;27;33781;-92
2022/04/11 21:17:56;;;;;;;;;;;;;;;7.34;45.41;100015.72;5179314;27;34146;-91
2022/04/11 21:20:24;;;;;;;;;;;;;;;7.38;44.88;100022.63;5180264;27;34476;-94
2022/04/11 21:22:53;;;;;;;;;;;;;;;7.21;45.77;100021.69;5185664;27;34522;-90
2022/04/11 21:25:22;;;;;;;;;;;;;;;7.10;46.42;100026.75;5181720;27;33868;-90
2022/04/11 21:27:50;;;;;;;;;;;;;;;7.18;46.27;100030.25;5179954;27;34662;-89
2022/04/11 21:30:20;;;;;;;;;;;;;;;7.33;45.54;100029.47;5180716;27;34701;-89
2022/04/11 21:32:49;;;;;;;;;;;;;;;7.26;46.02;100027.72;5245399;27;34170;-93
2022/04/11 21:35:17;;;;;;;;;;;;;;;7.07;46.89;100021.59;5246101;27;34905;-91
2022/04/11 21:37:47;;;;;;;;;;;;;;;6.68;47.96;100025.59;5251340;27;34875;-91
2022/04/11 21:40:16;;;;;;;;;;;;;;;7.11;46.75;100025.91;5248094;27;34992;-91
2022/04/11 21:42:44;;;;;;;;;;;;;;;7.36;46.09;100028.62;5248985;27;33137;-91
2022/04/11 21:45:13;;;;;;;;;;;;;;;6.89;47.74;100032.66;5249667;27;33962;-91
2022/04/11 21:47:42;;;;;;;;;;;;;;;7.07;47.16;100031.91;5249118;27;35060;-91
2022/04/11 21:50:11;;;;;;;;;;;;;;;6.69;47.54;100034.19;5253769;27;34698;-93
2022/04/11 21:52:40;;;;;;;;;;;;;;;6.86;46.99;100036.91;5247322;27;32756;-93
2022/04/11 21:55:09;;;;;;;;;;;;;;;7.00;46.17;100033.56;5246737;27;34055;-93
2022/04/11 21:57:48;;;;;;;;;;;;;;;7.00;46.02;100027.56;5248256;27;33873;-91
2022/04/11 22:00:17;;;;;;;;;;;;;;;6.94;46.22;100030.09;5246985;27;34729;-93
2022/04/11 22:05:38;;;;;;;;;;;;;;;6.44;47.18;100033.13;5254651;27;33896;-92
2022/04/11 22:08:08;;;;;;;;;;;;;;;6.56;47.12;100033.25;5249366;27;34302;-91
2022/04/11 22:10:37;;;;;;;;;;;;;;;6.51;47.79;100038.34;5230374;27;34426;-91
2022/04/11 22:13:05;;;;;;;;;;;;;;;6.74;47.78;100041.16;5248807;27;32518;-92
2022/04/11 22:15:40;;;;;;;;;;;;;;;6.62;48.09;100038.47;5249603;27;34151;-91
2022/04/11 22:18:13;;;;;;;;;;;;;;;6.56;48.42;100035.81;5250836;27;34790;-92
2022/04/11 22:20:42;;;;;;;;;;;;;;;6.57;48.49;100035.84;5253329;27;33390;-91
2022/04/11 22:23:11;;;;;;;;;;;;;;;6.59;48.15;100036.69;5249119;27;33687;-92
2022/04/11 22:25:39;;;;;;;;;;;;;;;6.53;47.87;100031.50;5248018;27;33816;-91
2022/04/11 22:28:12;;;;;;;;;;;;;;;6.56;47.57;100033.25;5250376;27;33913;-91
2022/04/11 22:30:43;;;;;;;;;;;;;;;6.30;47.78;100044.16;5249069;27;35230;-94
2022/04/11 22:33:14;;;;;;;;;;;;;;;6.40;47.55;100040.84;5235819;27;31973;-92
2022/04/11 22:35:42;;;;;;;;;;;;;;;6.45;46.82;100040.91;5247939;27;32984;-93
2022/04/11 22:38:11;;;;;;;;;;;;;;;6.44;46.99;100031.41;5248208;27;32707;-91
2022/04/11 22:40:39;;;;;;;;;;;;;;;6.55;46.96;100036.69;5249437;27;34943;-94
2022/04/11 22:43:08;;;;;;;;;;;;;;;6.51;46.56;100030.63;5249325;27;33123;-92
2022/04/11 22:45:37;;;;;;;;;;;;;;;6.54;46.20;100033.22;5256056;27;34921;-91
2022/04/11 22:48:06;;;;;;;;;;;;;;;6.48;46.24;100034.91;5248396;27;34008;-91
2022/04/11 22:50:36;;;;;;;;;;;;;;;6.50;45.89;100035.75;5250541;27;35093;-91
2022/04/11 22:53:06;;;;;;;;;;;;;;;6.53;45.96;100038.38;5248362;27;32937;-92
2022/04/11 22:55:34;;;;;;;;;;;;;;;6.45;46.45;100037.44;5249283;27;34347;-93
2022/04/11 22:58:03;;;;;;;;;;;;;;;6.38;47.04;100033.97;5251001;27;34999;-93
2022/04/11 23:00:33;;;;;;;;;;;;;;;6.37;47.04;100032.22;5254384;27;35420;-92
2022/04/11 23:03:03;;;;;;;;;;;;;;;6.40;46.81;100030.53;5250459;27;33941;-94
2022/04/11 23:05:32;;;;;;;;;;;;;;;6.41;46.66;100027.09;5250788;27;35076;-94
2022/04/11 23:08:02;;;;;;;;;;;;;;;6.48;46.00;100027.16;5249317;27;34157;-93
2022/04/11 23:10:31;;;;;;;;;;;;;;;6.38;46.20;100032.25;5248603;27;33430;-92
2022/04/11 23:13:04;;;;;;;;;;;;;;;6.39;46.19;100026.22;5254398;27;33570;-92
2022/04/11 23:15:38;;;;;;;;;;;;;;;6.43;46.31;100026.25;5250995;27;34093;-93
2022/04/11 23:18:10;;;;;;;;;;;;;;;6.18;46.71;100034.59;5231663;27;33712;-94
2022/04/11 23:20:40;;;;;;;;;;;;;;;6.22;46.55;100029.50;5250581;27;35175;-90
2022/04/11 23:23:11;;;;;;;;;;;;;;;6.29;46.47;100029.56;5250585;27;34293;-93
2022/04/11 23:25:39;;;;;;;;;;;;;;;6.14;47.09;100013.97;5251785;27;33796;-92
2022/04/11 23:28:07;;;;;;;;;;;;;;;6.06;47.43;100018.16;5255781;27;33891;-90
2022/04/11 23:30:42;;;;;;;;;;;;;;;6.14;47.23;100017.41;5250250;27;35145;-91
2022/04/11 23:33:11;;;;;;;;;;;;;;;6.18;47.08;100010.56;5250762;27;34663;-94
2022/04/11 23:35:39;;;;;;;;;;;;;;;6.23;47.06;100024.34;5249936;27;32801;-90
2022/04/11 23:38:08;;;;;;;;;;;;;;;5.93;47.77;100012.00;5251389;27;33828;-94
2022/04/11 23:43:24;;;;;;;;;;;;;;;6.12;47.64;100011.38;5254168;27;33120;-90
2022/04/11 23:45:52;;;;;;;;;;;;;;;5.93;48.01;100014.56;5248970;27;33996;-91
2022/04/11 23:48:21;;;;;;;;;;;;;;;6.06;47.72;100018.16;5249884;27;34229;-93
2022/04/11 23:50:49;;;;;;;;;;;;;;;5.97;48.15;100012.09;5248134;27;34078;-92
2022/04/11 23:53:18;;;;;;;;;;;;;;;6.06;48.18;100016.44;5250314;27;33157;-93
2022/04/11 23:55:48;;;;;;;;;;;;;;;6.09;47.86;100010.47;5255387;27;35042;-91
2022/04/11 23:58:17;;;;;;;;;;;;;;;5.82;48.56;100011.84;5251375;27;35007;-92
